sensor_id;sensor_type;location;lat;lon;timestamp;P1;durP1;ratioP1;P2;durP2;ratioP2
21138;SDS011;10727;43.600;1.444;2023-12-20T00:00:08;17.58;;;12.52;;
21138;SDS011;10727;43.600;1.444;2023-12-20T00:03:14;16.27;;;11.57;;
21138;SDS011;10727;43.600;1.444;2023-12-20T00:06:20;16.40;;;12.43;;
21138;SDS011;10727;43.600;1.444;2023-12-20T00:09:26;17.55;;;12.63;;
21138;SDS011;10727;43.600;1.444;2023-12-20T00:12:31;17.95;;;12.50;;
21138;SDS011;10727;43.600;1.444;2023-12-20T00:15:37;16.05;;;11.93;;
21138;SDS011;10727;43.600;1.444;2023-12-20T00:18:42;15.43;;;11.52;;
21138;SDS011;10727;43.600;1.444;2023-12-20T00:21:47;16.85;;;13.18;;
21138;SDS011;10727;43.600;1.444;2023-12-20T00:24:54;16.35;;;12.75;;
21138;SDS011;10727;43.600;1.444;2023-12-20T00:27:59;16.50;;;12.13;;
21138;SDS011;10727;43.600;1.444;2023-12-20T00:31:05;16.05;;;11.50;;
21138;SDS011;10727;43.600;1.444;2023-12-20T00:34:11;15.93;;;10.88;;
21138;SDS011;10727;43.600;1.444;2023-12-20T00:37:17;16.67;;;11.57;;
21138;SDS011;10727;43.600;1.444;2023-12-20T00:40:23;14.52;;;11.30;;
21138;SDS011;10727;43.600;1.444;2023-12-20T00:43:28;13.25;;;10.43;;
21138;SDS011;10727;43.600;1.444;2023-12-20T00:46:34;16.65;;;11.80;;
21138;SDS011;10727;43.600;1.444;2023-12-20T00:49:39;16.48;;;10.98;;
21138;SDS011;10727;43.600;1.444;2023-12-20T00:52:45;16.63;;;11.50;;
21138;SDS011;10727;43.600;1.444;2023-12-20T00:55:52;15.98;;;11.10;;
21138;SDS011;10727;43.600;1.444;2023-12-20T00:58:57;14.65;;;10.77;;
21138;SDS011;10727;43.600;1.444;2023-12-20T01:02:02;14.90;;;10.85;;
21138;SDS011;10727;43.600;1.444;2023-12-20T01:05:08;13.80;;;10.43;;
21138;SDS011;10727;43.600;1.444;2023-12-20T01:08:13;14.40;;;9.88;;
21138;SDS011;10727;43.600;1.444;2023-12-20T01:11:20;12.68;;;9.55;;
21138;SDS011;10727;43.600;1.444;2023-12-20T01:14:25;12.10;;;10.18;;
21138;SDS011;10727;43.600;1.444;2023-12-20T01:17:31;15.98;;;9.85;;
21138;SDS011;10727;43.600;1.444;2023-12-20T01:20:36;14.73;;;10.52;;
21138;SDS011;10727;43.600;1.444;2023-12-20T01:23:41;12.77;;;10.38;;
21138;SDS011;10727;43.600;1.444;2023-12-20T01:26:48;12.90;;;10.25;;
21138;SDS011;10727;43.600;1.444;2023-12-20T01:29:54;16.40;;;11.43;;
21138;SDS011;10727;43.600;1.444;2023-12-20T01:32:59;13.05;;;10.20;;
21138;SDS011;10727;43.600;1.444;2023-12-20T01:36:05;17.67;;;10.88;;
21138;SDS011;10727;43.600;1.444;2023-12-20T01:39:10;15.02;;;10.65;;
21138;SDS011;10727;43.600;1.444;2023-12-20T01:42:17;14.77;;;11.38;;
21138;SDS011;10727;43.600;1.444;2023-12-20T01:45:23;15.23;;;10.93;;
21138;SDS011;10727;43.600;1.444;2023-12-20T01:48:28;13.60;;;10.25;;
21138;SDS011;10727;43.600;1.444;2023-12-20T01:51:35;15.02;;;10.70;;
21138;SDS011;10727;43.600;1.444;2023-12-20T01:54:41;11.18;;;9.65;;
21138;SDS011;10727;43.600;1.444;2023-12-20T01:57:49;13.25;;;10.63;;
21138;SDS011;10727;43.600;1.444;2023-12-20T02:00:54;15.18;;;10.52;;
21138;SDS011;10727;43.600;1.444;2023-12-20T02:04:00;13.40;;;10.38;;
21138;SDS011;10727;43.600;1.444;2023-12-20T02:07:05;12.68;;;10.48;;
21138;SDS011;10727;43.600;1.444;2023-12-20T02:10:12;14.88;;;10.77;;
21138;SDS011;10727;43.600;1.444;2023-12-20T02:13:19;13.35;;;10.38;;
21138;SDS011;10727;43.600;1.444;2023-12-20T02:16:24;12.55;;;10.07;;
21138;SDS011;10727;43.600;1.444;2023-12-20T02:19:29;13.02;;;9.38;;
21138;SDS011;10727;43.600;1.444;2023-12-20T02:22:36;13.15;;;9.65;;
21138;SDS011;10727;43.600;1.444;2023-12-20T02:25:41;15.27;;;10.50;;
21138;SDS011;10727;43.600;1.444;2023-12-20T02:28:47;11.73;;;8.75;;
21138;SDS011;10727;43.600;1.444;2023-12-20T02:31:53;12.35;;;9.68;;
21138;SDS011;10727;43.600;1.444;2023-12-20T02:34:58;11.73;;;9.25;;
21138;SDS011;10727;43.600;1.444;2023-12-20T02:38:04;14.07;;;9.48;;
21138;SDS011;10727;43.600;1.444;2023-12-20T02:41:10;13.77;;;9.80;;
21138;SDS011;10727;43.600;1.444;2023-12-20T02:44:15;12.32;;;9.18;;
21138;SDS011;10727;43.600;1.444;2023-12-20T02:47:21;11.27;;;9.02;;
21138;SDS011;10727;43.600;1.444;2023-12-20T02:50:26;11.90;;;9.35;;
21138;SDS011;10727;43.600;1.444;2023-12-20T02:53:32;11.77;;;8.82;;
21138;SDS011;10727;43.600;1.444;2023-12-20T02:56:37;11.32;;;8.27;;
21138;SDS011;10727;43.600;1.444;2023-12-20T02:59:42;10.93;;;8.40;;
21138;SDS011;10727;43.600;1.444;2023-12-20T03:02:48;11.25;;;8.68;;
21138;SDS011;10727;43.600;1.444;2023-12-20T03:05:53;11.93;;;8.82;;
21138;SDS011;10727;43.600;1.444;2023-12-20T03:09:00;11.13;;;8.88;;
21138;SDS011;10727;43.600;1.444;2023-12-20T03:12:05;10.52;;;8.65;;
21138;SDS011;10727;43.600;1.444;2023-12-20T03:15:10;11.68;;;8.48;;
21138;SDS011;10727;43.600;1.444;2023-12-20T03:18:16;10.43;;;8.32;;
21138;SDS011;10727;43.600;1.444;2023-12-20T03:21:21;11.68;;;8.70;;
21138;SDS011;10727;43.600;1.444;2023-12-20T03:24:28;9.93;;;8.07;;
21138;SDS011;10727;43.600;1.444;2023-12-20T03:27:33;11.30;;;8.25;;
21138;SDS011;10727;43.600;1.444;2023-12-20T03:30:38;11.15;;;8.55;;
21138;SDS011;10727;43.600;1.444;2023-12-20T03:33:43;10.88;;;8.43;;
21138;SDS011;10727;43.600;1.444;2023-12-20T03:36:49;11.90;;;9.00;;
21138;SDS011;10727;43.600;1.444;2023-12-20T03:39:56;12.18;;;9.05;;
21138;SDS011;10727;43.600;1.444;2023-12-20T03:43:01;13.27;;;9.07;;
21138;SDS011;10727;43.600;1.444;2023-12-20T03:46:07;11.50;;;9.18;;
21138;SDS011;10727;43.600;1.444;2023-12-20T03:49:13;11.15;;;8.95;;
21138;SDS011;10727;43.600;1.444;2023-12-20T03:52:18;12.27;;;9.30;;
21138;SDS011;10727;43.600;1.444;2023-12-20T03:55:24;10.93;;;9.73;;
21138;SDS011;10727;43.600;1.444;2023-12-20T03:58:30;12.73;;;8.75;;
21138;SDS011;10727;43.600;1.444;2023-12-20T04:01:35;12.07;;;9.32;;
21138;SDS011;10727;43.600;1.444;2023-12-20T04:04:40;13.00;;;9.88;;
21138;SDS011;10727;43.600;1.444;2023-12-20T04:07:46;12.10;;;9.18;;
21138;SDS011;10727;43.600;1.444;2023-12-20T04:10:55;12.02;;;8.98;;
21138;SDS011;10727;43.600;1.444;2023-12-20T04:14:00;10.38;;;8.52;;
21138;SDS011;10727;43.600;1.444;2023-12-20T04:17:06;10.40;;;8.65;;
21138;SDS011;10727;43.600;1.444;2023-12-20T04:20:11;11.93;;;8.90;;
21138;SDS011;10727;43.600;1.444;2023-12-20T04:23:16;12.77;;;8.63;;
21138;SDS011;10727;43.600;1.444;2023-12-20T04:26:23;10.18;;;8.18;;
21138;SDS011;10727;43.600;1.444;2023-12-20T04:29:28;11.18;;;7.95;;
21138;SDS011;10727;43.600;1.444;2023-12-20T04:32:33;11.18;;;7.68;;
21138;SDS011;10727;43.600;1.444;2023-12-20T04:35:39;10.57;;;8.00;;
21138;SDS011;10727;43.600;1.444;2023-12-20T04:38:46;12.13;;;8.05;;
21138;SDS011;10727;43.600;1.444;2023-12-20T04:41:53;8.65;;;7.72;;
21138;SDS011;10727;43.600;1.444;2023-12-20T04:44:58;10.98;;;7.47;;
21138;SDS011;10727;43.600;1.444;2023-12-20T04:48:03;10.85;;;7.57;;
21138;SDS011;10727;43.600;1.444;2023-12-20T04:51:08;14.52;;;7.25;;
21138;SDS011;10727;43.600;1.444;2023-12-20T04:54:14;9.10;;;7.43;;
21138;SDS011;10727;43.600;1.444;2023-12-20T04:57:20;9.68;;;7.40;;
21138;SDS011;10727;43.600;1.444;2023-12-20T05:00:25;7.55;;;6.25;;
21138;SDS011;10727;43.600;1.444;2023-12-20T05:03:31;8.10;;;5.55;;
21138;SDS011;10727;43.600;1.444;2023-12-20T05:06:37;6.05;;;5.43;;
21138;SDS011;10727;43.600;1.444;2023-12-20T05:09:43;6.03;;;5.28;;
21138;SDS011;10727;43.600;1.444;2023-12-20T05:12:49;8.60;;;5.25;;
21138;SDS011;10727;43.600;1.444;2023-12-20T05:15:54;5.60;;;5.00;;
21138;SDS011;10727;43.600;1.444;2023-12-20T05:19:00;4.68;;;4.18;;
21138;SDS011;10727;43.600;1.444;2023-12-20T05:22:09;4.60;;;4.00;;
21138;SDS011;10727;43.600;1.444;2023-12-20T05:25:15;4.85;;;4.00;;
21138;SDS011;10727;43.600;1.444;2023-12-20T05:28:22;7.18;;;4.40;;
21138;SDS011;10727;43.600;1.444;2023-12-20T05:31:27;4.18;;;3.45;;
21138;SDS011;10727;43.600;1.444;2023-12-20T05:34:32;5.25;;;3.65;;
21138;SDS011;10727;43.600;1.444;2023-12-20T05:37:38;3.97;;;3.28;;
21138;SDS011;10727;43.600;1.444;2023-12-20T05:40:43;3.38;;;3.05;;
21138;SDS011;10727;43.600;1.444;2023-12-20T05:43:49;3.58;;;2.80;;
21138;SDS011;10727;43.600;1.444;2023-12-20T05:46:56;5.38;;;3.15;;
21138;SDS011;10727;43.600;1.444;2023-12-20T05:50:01;3.55;;;2.80;;
21138;SDS011;10727;43.600;1.444;2023-12-20T05:53:07;4.57;;;2.72;;
21138;SDS011;10727;43.600;1.444;2023-12-20T05:56:12;3.88;;;2.70;;
21138;SDS011;10727;43.600;1.444;2023-12-20T05:59:19;4.53;;;2.60;;
21138;SDS011;10727;43.600;1.444;2023-12-20T06:02:25;5.47;;;3.40;;
21138;SDS011;10727;43.600;1.444;2023-12-20T06:05:30;4.70;;;3.28;;
21138;SDS011;10727;43.600;1.444;2023-12-20T06:08:35;5.28;;;3.22;;
21138;SDS011;10727;43.600;1.444;2023-12-20T06:11:41;3.97;;;3.35;;
21138;SDS011;10727;43.600;1.444;2023-12-20T06:14:47;3.47;;;2.47;;
21138;SDS011;10727;43.600;1.444;2023-12-20T06:17:53;4.72;;;2.92;;
21138;SDS011;10727;43.600;1.444;2023-12-20T06:20:58;4.05;;;2.50;;
21138;SDS011;10727;43.600;1.444;2023-12-20T06:24:03;3.85;;;2.20;;
21138;SDS011;10727;43.600;1.444;2023-12-20T06:27:09;2.22;;;2.03;;
21138;SDS011;10727;43.600;1.444;2023-12-20T06:30:16;2.47;;;1.98;;
21138;SDS011;10727;43.600;1.444;2023-12-20T06:33:21;2.10;;;1.85;;
21138;SDS011;10727;43.600;1.444;2023-12-20T06:36:27;2.33;;;1.85;;
21138;SDS011;10727;43.600;1.444;2023-12-20T06:39:34;2.47;;;1.75;;
21138;SDS011;10727;43.600;1.444;2023-12-20T06:42:40;2.20;;;2.00;;
21138;SDS011;10727;43.600;1.444;2023-12-20T06:45:46;2.15;;;1.67;;
21138;SDS011;10727;43.600;1.444;2023-12-20T06:48:52;4.13;;;1.70;;
21138;SDS011;10727;43.600;1.444;2023-12-20T06:51:57;1.73;;;1.63;;
21138;SDS011;10727;43.600;1.444;2023-12-20T06:55:03;2.63;;;1.52;;
21138;SDS011;10727;43.600;1.444;2023-12-20T06:58:08;2.72;;;1.80;;
21138;SDS011;10727;43.600;1.444;2023-12-20T07:01:14;1.77;;;1.50;;
21138;SDS011;10727;43.600;1.444;2023-12-20T07:04:20;2.03;;;1.60;;
21138;SDS011;10727;43.600;1.444;2023-12-20T07:07:26;1.67;;;1.58;;
21138;SDS011;10727;43.600;1.444;2023-12-20T07:10:31;1.98;;;1.50;;
21138;SDS011;10727;43.600;1.444;2023-12-20T07:13:36;2.08;;;1.27;;
21138;SDS011;10727;43.600;1.444;2023-12-20T07:16:47;1.20;;;1.10;;
21138;SDS011;10727;43.600;1.444;2023-12-20T07:19:53;1.30;;;1.20;;
21138;SDS011;10727;43.600;1.444;2023-12-20T07:22:58;1.10;;;1.02;;
21138;SDS011;10727;43.600;1.444;2023-12-20T07:26:03;2.08;;;1.60;;
21138;SDS011;10727;43.600;1.444;2023-12-20T07:29:09;4.47;;;1.65;;
21138;SDS011;10727;43.600;1.444;2023-12-20T07:32:15;3.75;;;1.90;;
21138;SDS011;10727;43.600;1.444;2023-12-20T07:35:21;2.28;;;1.85;;
21138;SDS011;10727;43.600;1.444;2023-12-20T07:38:26;2.15;;;1.95;;
21138;SDS011;10727;43.600;1.444;2023-12-20T07:41:31;2.15;;;1.80;;
21138;SDS011;10727;43.600;1.444;2023-12-20T07:44:37;4.20;;;1.80;;
21138;SDS011;10727;43.600;1.444;2023-12-20T07:47:44;1.80;;;1.52;;
21138;SDS011;10727;43.600;1.444;2023-12-20T07:50:49;1.70;;;1.60;;
21138;SDS011;10727;43.600;1.444;2023-12-20T07:53:55;1.88;;;1.38;;
21138;SDS011;10727;43.600;1.444;2023-12-20T07:57:01;2.97;;;1.60;;
21138;SDS011;10727;43.600;1.444;2023-12-20T08:00:07;2.20;;;1.50;;
21138;SDS011;10727;43.600;1.444;2023-12-20T08:03:14;2.28;;;1.45;;
21138;SDS011;10727;43.600;1.444;2023-12-20T08:06:19;1.52;;;1.38;;
21138;SDS011;10727;43.600;1.444;2023-12-20T08:09:25;3.33;;;1.48;;
21138;SDS011;10727;43.600;1.444;2023-12-20T08:12:31;1.73;;;1.40;;
21138;SDS011;10727;43.600;1.444;2023-12-20T08:15:36;1.77;;;1.40;;
21138;SDS011;10727;43.600;1.444;2023-12-20T08:18:44;3.17;;;1.40;;
21138;SDS011;10727;43.600;1.444;2023-12-20T08:21:49;4.90;;;1.48;;
21138;SDS011;10727;43.600;1.444;2023-12-20T08:24:54;1.85;;;1.13;;
21138;SDS011;10727;43.600;1.444;2023-12-20T08:28:00;1.17;;;1.08;;
21138;SDS011;10727;43.600;1.444;2023-12-20T08:31:06;1.33;;;1.20;;
21138;SDS011;10727;43.600;1.444;2023-12-20T08:34:12;1.50;;;1.23;;
21138;SDS011;10727;43.600;1.444;2023-12-20T08:37:18;1.17;;;1.08;;
21138;SDS011;10727;43.600;1.444;2023-12-20T08:40:23;1.40;;;1.25;;
21138;SDS011;10727;43.600;1.444;2023-12-20T08:43:28;2.55;;;1.30;;
21138;SDS011;10727;43.600;1.444;2023-12-20T08:46:33;1.98;;;1.50;;
21138;SDS011;10727;43.600;1.444;2023-12-20T08:49:40;2.67;;;1.83;;
21138;SDS011;10727;43.600;1.444;2023-12-20T08:52:45;2.33;;;1.63;;
21138;SDS011;10727;43.600;1.444;2023-12-20T08:55:51;1.60;;;1.50;;
21138;SDS011;10727;43.600;1.444;2023-12-20T08:58:56;3.58;;;1.80;;
21138;SDS011;10727;43.600;1.444;2023-12-20T09:02:01;7.53;;;1.90;;
21138;SDS011;10727;43.600;1.444;2023-12-20T09:05:08;2.08;;;1.60;;
21138;SDS011;10727;43.600;1.444;2023-12-20T09:08:13;2.13;;;1.70;;
21138;SDS011;10727;43.600;1.444;2023-12-20T09:11:19;3.00;;;1.77;;
21138;SDS011;10727;43.600;1.444;2023-12-20T09:14:24;2.92;;;2.03;;
21138;SDS011;10727;43.600;1.444;2023-12-20T09:17:29;2.80;;;1.88;;
21138;SDS011;10727;43.600;1.444;2023-12-20T09:20:36;5.47;;;2.35;;
21138;SDS011;10727;43.600;1.444;2023-12-20T09:23:41;2.20;;;1.75;;
21138;SDS011;10727;43.600;1.444;2023-12-20T09:26:46;3.33;;;1.98;;
21138;SDS011;10727;43.600;1.444;2023-12-20T09:29:52;4.18;;;1.98;;
21138;SDS011;10727;43.600;1.444;2023-12-20T09:32:57;4.10;;;2.40;;
21138;SDS011;10727;43.600;1.444;2023-12-20T09:36:03;5.20;;;2.65;;
21138;SDS011;10727;43.600;1.444;2023-12-20T09:39:09;4.30;;;2.30;;
21138;SDS011;10727;43.600;1.444;2023-12-20T09:42:15;3.03;;;2.00;;
21138;SDS011;10727;43.600;1.444;2023-12-20T09:45:22;4.20;;;2.05;;
21138;SDS011;10727;43.600;1.444;2023-12-20T09:48:27;4.25;;;1.77;;
21138;SDS011;10727;43.600;1.444;2023-12-20T09:51:34;4.70;;;2.05;;
21138;SDS011;10727;43.600;1.444;2023-12-20T09:54:39;3.53;;;1.40;;
21138;SDS011;10727;43.600;1.444;2023-12-20T09:57:45;4.00;;;1.52;;
21138;SDS011;10727;43.600;1.444;2023-12-20T10:00:51;3.45;;;1.65;;
21138;SDS011;10727;43.600;1.444;2023-12-20T10:03:56;3.75;;;1.63;;
21138;SDS011;10727;43.600;1.444;2023-12-20T10:07:04;3.38;;;1.65;;
21138;SDS011;10727;43.600;1.444;2023-12-20T10:10:10;8.15;;;2.30;;
21138;SDS011;10727;43.600;1.444;2023-12-20T10:13:16;3.47;;;1.70;;
21138;SDS011;10727;43.600;1.444;2023-12-20T10:16:23;5.82;;;1.45;;
21138;SDS011;10727;43.600;1.444;2023-12-20T10:19:29;8.55;;;1.70;;
21138;SDS011;10727;43.600;1.444;2023-12-20T10:22:37;3.63;;;1.55;;
21138;SDS011;10727;43.600;1.444;2023-12-20T10:25:42;3.40;;;1.70;;
21138;SDS011;10727;43.600;1.444;2023-12-20T10:28:49;3.45;;;1.55;;
21138;SDS011;10727;43.600;1.444;2023-12-20T10:31:56;4.70;;;2.10;;
21138;SDS011;10727;43.600;1.444;2023-12-20T10:35:01;3.28;;;1.48;;
21138;SDS011;10727;43.600;1.444;2023-12-20T10:38:08;3.00;;;1.60;;
21138;SDS011;10727;43.600;1.444;2023-12-20T10:41:13;2.45;;;1.30;;
21138;SDS011;10727;43.600;1.444;2023-12-20T10:44:20;3.00;;;1.58;;
21138;SDS011;10727;43.600;1.444;2023-12-20T10:47:25;3.22;;;1.70;;
21138;SDS011;10727;43.600;1.444;2023-12-20T10:50:31;3.35;;;1.27;;
21138;SDS011;10727;43.600;1.444;2023-12-20T10:53:37;3.58;;;1.52;;
21138;SDS011;10727;43.600;1.444;2023-12-20T10:56:43;1.52;;;1.10;;
21138;SDS011;10727;43.600;1.444;2023-12-20T10:59:49;3.78;;;1.20;;
21138;SDS011;10727;43.600;1.444;2023-12-20T11:02:59;4.07;;;1.55;;
21138;SDS011;10727;43.600;1.444;2023-12-20T11:06:07;4.53;;;1.58;;
21138;SDS011;10727;43.600;1.444;2023-12-20T11:09:17;3.28;;;1.40;;
21138;SDS011;10727;43.600;1.444;2023-12-20T11:12:28;5.10;;;1.52;;
21138;SDS011;10727;43.600;1.444;2023-12-20T11:15:37;7.03;;;1.75;;
21138;SDS011;10727;43.600;1.444;2023-12-20T11:18:44;2.95;;;1.40;;
21138;SDS011;10727;43.600;1.444;2023-12-20T11:21:50;3.13;;;1.45;;
21138;SDS011;10727;43.600;1.444;2023-12-20T11:25:00;3.97;;;1.60;;
21138;SDS011;10727;43.600;1.444;2023-12-20T11:28:08;4.32;;;1.67;;
21138;SDS011;10727;43.600;1.444;2023-12-20T11:31:14;7.43;;;1.58;;
21138;SDS011;10727;43.600;1.444;2023-12-20T11:34:21;5.55;;;1.88;;
21138;SDS011;10727;43.600;1.444;2023-12-20T11:37:29;3.10;;;1.40;;
21138;SDS011;10727;43.600;1.444;2023-12-20T11:40:37;5.35;;;1.50;;
21138;SDS011;10727;43.600;1.444;2023-12-20T11:43:42;3.20;;;1.55;;
21138;SDS011;10727;43.600;1.444;2023-12-20T11:46:47;6.07;;;1.67;;
21138;SDS011;10727;43.600;1.444;2023-12-20T11:49:53;4.82;;;1.67;;
21138;SDS011;10727;43.600;1.444;2023-12-20T11:52:59;2.65;;;1.50;;
21138;SDS011;10727;43.600;1.444;2023-12-20T11:56:06;3.33;;;1.42;;
21138;SDS011;10727;43.600;1.444;2023-12-20T11:59:11;4.95;;;1.88;;
21138;SDS011;10727;43.600;1.444;2023-12-20T12:02:17;3.17;;;1.88;;
21138;SDS011;10727;43.600;1.444;2023-12-20T12:05:22;2.88;;;1.50;;
21138;SDS011;10727;43.600;1.444;2023-12-20T12:08:28;2.85;;;1.52;;
21138;SDS011;10727;43.600;1.444;2023-12-20T12:11:34;3.95;;;1.48;;
21138;SDS011;10727;43.600;1.444;2023-12-20T12:14:40;4.07;;;1.70;;
21138;SDS011;10727;43.600;1.444;2023-12-20T12:17:52;3.95;;;1.30;;
21138;SDS011;10727;43.600;1.444;2023-12-20T12:21:00;4.13;;;1.38;;
21138;SDS011;10727;43.600;1.444;2023-12-20T12:24:07;3.38;;;1.17;;
21138;SDS011;10727;43.600;1.444;2023-12-20T12:27:14;4.45;;;1.40;;
21138;SDS011;10727;43.600;1.444;2023-12-20T12:30:19;4.22;;;1.33;;
21138;SDS011;10727;43.600;1.444;2023-12-20T12:33:24;3.55;;;1.60;;
21138;SDS011;10727;43.600;1.444;2023-12-20T12:36:30;3.00;;;1.42;;
21138;SDS011;10727;43.600;1.444;2023-12-20T12:39:35;4.55;;;1.70;;
21138;SDS011;10727;43.600;1.444;2023-12-20T12:42:43;6.07;;;1.75;;
21138;SDS011;10727;43.600;1.444;2023-12-20T12:45:48;4.45;;;1.50;;
21138;SDS011;10727;43.600;1.444;2023-12-20T12:48:53;5.35;;;1.75;;
21138;SDS011;10727;43.600;1.444;2023-12-20T12:51:59;5.10;;;1.50;;
21138;SDS011;10727;43.600;1.444;2023-12-20T12:55:06;3.90;;;1.33;;
21138;SDS011;10727;43.600;1.444;2023-12-20T12:58:13;6.90;;;1.98;;
21138;SDS011;10727;43.600;1.444;2023-12-20T13:01:18;5.05;;;1.50;;
21138;SDS011;10727;43.600;1.444;2023-12-20T13:04:24;5.95;;;1.70;;
21138;SDS011;10727;43.600;1.444;2023-12-20T13:07:29;6.53;;;1.70;;
21138;SDS011;10727;43.600;1.444;2023-12-20T13:10:35;5.70;;;1.70;;
21138;SDS011;10727;43.600;1.444;2023-12-20T13:13:42;6.85;;;1.80;;
21138;SDS011;10727;43.600;1.444;2023-12-20T13:16:47;3.75;;;1.38;;
21138;SDS011;10727;43.600;1.444;2023-12-20T13:19:53;4.68;;;1.30;;
21138;SDS011;10727;43.600;1.444;2023-12-20T13:22:58;6.22;;;1.30;;
21138;SDS011;10727;43.600;1.444;2023-12-20T13:26:04;4.00;;;1.33;;
21138;SDS011;10727;43.600;1.444;2023-12-20T13:29:12;6.15;;;1.48;;
21138;SDS011;10727;43.600;1.444;2023-12-20T13:32:17;5.13;;;1.38;;
21138;SDS011;10727;43.600;1.444;2023-12-20T13:35:23;5.63;;;1.60;;
21138;SDS011;10727;43.600;1.444;2023-12-20T13:38:28;5.50;;;1.73;;
21138;SDS011;10727;43.600;1.444;2023-12-20T13:41:33;6.95;;;1.58;;
21138;SDS011;10727;43.600;1.444;2023-12-20T13:44:40;7.22;;;1.58;;
21138;SDS011;10727;43.600;1.444;2023-12-20T13:47:45;5.40;;;1.30;;
21138;SDS011;10727;43.600;1.444;2023-12-20T13:50:51;4.55;;;1.30;;
21138;SDS011;10727;43.600;1.444;2023-12-20T13:53:57;3.38;;;1.33;;
21138;SDS011;10727;43.600;1.444;2023-12-20T13:57:03;6.40;;;2.20;;
21138;SDS011;10727;43.600;1.444;2023-12-20T14:00:10;9.68;;;2.85;;
21138;SDS011;10727;43.600;1.444;2023-12-20T14:03:17;4.25;;;1.67;;
21138;SDS011;10727;43.600;1.444;2023-12-20T14:06:23;5.60;;;1.92;;
21138;SDS011;10727;43.600;1.444;2023-12-20T14:09:29;8.95;;;2.38;;
21138;SDS011;10727;43.600;1.444;2023-12-20T14:12:35;5.80;;;1.80;;
21138;SDS011;10727;43.600;1.444;2023-12-20T14:15:42;7.95;;;1.80;;
21138;SDS011;10727;43.600;1.444;2023-12-20T14:18:47;3.33;;;1.50;;
21138;SDS011;10727;43.600;1.444;2023-12-20T14:21:55;6.25;;;1.40;;
21138;SDS011;10727;43.600;1.444;2023-12-20T14:25:04;7.72;;;1.88;;
21138;SDS011;10727;43.600;1.444;2023-12-20T14:28:10;7.45;;;2.50;;
21138;SDS011;10727;43.600;1.444;2023-12-20T14:31:18;7.65;;;2.35;;
21138;SDS011;10727;43.600;1.444;2023-12-20T14:34:25;5.13;;;1.77;;
21138;SDS011;10727;43.600;1.444;2023-12-20T14:37:29;10.30;;;1.95;;
21138;SDS011;10727;43.600;1.444;2023-12-20T14:40:35;5.97;;;1.67;;
21138;SDS011;10727;43.600;1.444;2023-12-20T14:43:42;4.43;;;1.70;;
21138;SDS011;10727;43.600;1.444;2023-12-20T14:46:49;4.32;;;1.20;;
21138;SDS011;10727;43.600;1.444;2023-12-20T14:49:55;7.93;;;2.13;;
21138;SDS011;10727;43.600;1.444;2023-12-20T14:53:01;5.93;;;2.00;;
21138;SDS011;10727;43.600;1.444;2023-12-20T14:56:06;4.20;;;1.60;;
21138;SDS011;10727;43.600;1.444;2023-12-20T14:59:11;6.53;;;2.00;;
21138;SDS011;10727;43.600;1.444;2023-12-20T15:02:18;6.15;;;1.67;;
21138;SDS011;10727;43.600;1.444;2023-12-20T15:05:23;4.78;;;1.77;;
21138;SDS011;10727;43.600;1.444;2023-12-20T15:08:29;6.25;;;1.80;;
21138;SDS011;10727;43.600;1.444;2023-12-20T15:11:34;5.40;;;1.75;;
21138;SDS011;10727;43.600;1.444;2023-12-20T15:14:40;6.78;;;1.65;;
21138;SDS011;10727;43.600;1.444;2023-12-20T15:17:47;4.95;;;2.05;;
21138;SDS011;10727;43.600;1.444;2023-12-20T15:20:52;5.15;;;1.48;;
21138;SDS011;10727;43.600;1.444;2023-12-20T15:23:58;5.32;;;2.28;;
21138;SDS011;10727;43.600;1.444;2023-12-20T15:27:16;3.75;;;1.75;;
21138;SDS011;10727;43.600;1.444;2023-12-20T15:30:21;3.75;;;1.55;;
21138;SDS011;10727;43.600;1.444;2023-12-20T15:33:28;7.07;;;1.83;;
21138;SDS011;10727;43.600;1.444;2023-12-20T15:36:33;3.63;;;1.30;;
21138;SDS011;10727;43.600;1.444;2023-12-20T15:39:40;6.50;;;1.98;;
21138;SDS011;10727;43.600;1.444;2023-12-20T15:42:46;7.05;;;2.05;;
21138;SDS011;10727;43.600;1.444;2023-12-20T15:45:52;4.70;;;1.73;;
21138;SDS011;10727;43.600;1.444;2023-12-20T15:48:59;6.10;;;2.30;;
21138;SDS011;10727;43.600;1.444;2023-12-20T15:52:04;4.72;;;1.98;;
21138;SDS011;10727;43.600;1.444;2023-12-20T15:55:09;9.00;;;2.45;;
21138;SDS011;10727;43.600;1.444;2023-12-20T15:58:15;10.82;;;1.90;;
21138;SDS011;10727;43.600;1.444;2023-12-20T16:01:20;4.45;;;1.83;;
21138;SDS011;10727;43.600;1.444;2023-12-20T16:04:26;7.43;;;1.92;;
21138;SDS011;10727;43.600;1.444;2023-12-20T16:07:32;4.75;;;1.90;;
21138;SDS011;10727;43.600;1.444;2023-12-20T16:10:37;6.90;;;1.70;;
21138;SDS011;10727;43.600;1.444;2023-12-20T16:13:43;7.63;;;2.42;;
21138;SDS011;10727;43.600;1.444;2023-12-20T16:16:49;6.05;;;1.90;;
21138;SDS011;10727;43.600;1.444;2023-12-20T16:19:55;5.65;;;1.80;;
21138;SDS011;10727;43.600;1.444;2023-12-20T16:23:00;7.70;;;1.83;;
21138;SDS011;10727;43.600;1.444;2023-12-20T16:26:06;4.97;;;1.95;;
21138;SDS011;10727;43.600;1.444;2023-12-20T16:29:11;6.43;;;1.98;;
21138;SDS011;10727;43.600;1.444;2023-12-20T16:32:16;7.72;;;2.50;;
21138;SDS011;10727;43.600;1.444;2023-12-20T16:35:23;5.82;;;2.40;;
21138;SDS011;10727;43.600;1.444;2023-12-20T16:38:28;5.43;;;2.13;;
21138;SDS011;10727;43.600;1.444;2023-12-20T16:41:34;5.72;;;2.10;;
21138;SDS011;10727;43.600;1.444;2023-12-20T16:44:39;6.65;;;1.88;;
21138;SDS011;10727;43.600;1.444;2023-12-20T16:47:44;6.95;;;2.17;;
21138;SDS011;10727;43.600;1.444;2023-12-20T16:50:50;5.63;;;2.13;;
21138;SDS011;10727;43.600;1.444;2023-12-20T16:53:55;8.85;;;2.15;;
21138;SDS011;10727;43.600;1.444;2023-12-20T16:57:01;5.38;;;2.10;;
21138;SDS011;10727;43.600;1.444;2023-12-20T17:00:06;7.47;;;2.15;;
21138;SDS011;10727;43.600;1.444;2023-12-20T17:03:12;8.38;;;2.13;;
21138;SDS011;10727;43.600;1.444;2023-12-20T17:06:19;8.55;;;2.60;;
21138;SDS011;10727;43.600;1.444;2023-12-20T17:09:26;4.20;;;1.90;;
21138;SDS011;10727;43.600;1.444;2023-12-20T17:12:31;8.30;;;2.50;;
21138;SDS011;10727;43.600;1.444;2023-12-20T17:15:37;4.40;;;1.92;;
21138;SDS011;10727;43.600;1.444;2023-12-20T17:18:43;5.15;;;1.90;;
21138;SDS011;10727;43.600;1.444;2023-12-20T17:21:53;6.30;;;2.50;;
21138;SDS011;10727;43.600;1.444;2023-12-20T17:24:57;6.45;;;2.00;;
21138;SDS011;10727;43.600;1.444;2023-12-20T17:28:03;6.10;;;2.00;;
21138;SDS011;10727;43.600;1.444;2023-12-20T17:31:09;3.95;;;1.77;;
21138;SDS011;10727;43.600;1.444;2023-12-20T17:34:15;4.15;;;1.80;;
21138;SDS011;10727;43.600;1.444;2023-12-20T17:37:22;4.97;;;1.70;;
21138;SDS011;10727;43.600;1.444;2023-12-20T17:40:27;4.53;;;2.05;;
21138;SDS011;10727;43.600;1.444;2023-12-20T17:43:33;4.50;;;1.75;;
21138;SDS011;10727;43.600;1.444;2023-12-20T17:46:38;5.18;;;2.10;;
21138;SDS011;10727;43.600;1.444;2023-12-20T17:49:44;8.65;;;2.40;;
21138;SDS011;10727;43.600;1.444;2023-12-20T17:52:50;5.75;;;1.73;;
21138;SDS011;10727;43.600;1.444;2023-12-20T17:55:55;5.90;;;1.60;;
21138;SDS011;10727;43.600;1.444;2023-12-20T17:59:01;4.45;;;1.77;;
21138;SDS011;10727;43.600;1.444;2023-12-20T18:02:06;4.25;;;1.67;;
21138;SDS011;10727;43.600;1.444;2023-12-20T18:05:11;4.00;;;1.50;;
21138;SDS011;10727;43.600;1.444;2023-12-20T18:08:18;5.80;;;1.85;;
21138;SDS011;10727;43.600;1.444;2023-12-20T18:11:23;9.13;;;2.00;;
21138;SDS011;10727;43.600;1.444;2023-12-20T18:14:29;5.95;;;1.83;;
21138;SDS011;10727;43.600;1.444;2023-12-20T18:17:34;7.95;;;1.90;;
21138;SDS011;10727;43.600;1.444;2023-12-20T18:20:39;4.50;;;1.70;;
21138;SDS011;10727;43.600;1.444;2023-12-20T18:23:45;4.28;;;1.77;;
21138;SDS011;10727;43.600;1.444;2023-12-20T18:26:51;5.63;;;2.17;;
21138;SDS011;10727;43.600;1.444;2023-12-20T18:29:56;5.78;;;2.03;;
21138;SDS011;10727;43.600;1.444;2023-12-20T18:33:08;3.95;;;2.03;;